sensor_id;sensor_type;location;lat;lon;timestamp;P1;durP1;ratioP1;P2;durP2;ratioP2
30458;SDS011;17254;50.976;7.034;2023-04-24T00:00:04;4.00;;;2.70;;
30458;SDS011;17254;50.976;7.034;2023-04-24T00:00:11;3.98;;;2.68;;
30458;SDS011;17254;50.976;7.034;2023-04-24T00:00:20;3.90;;;2.80;;
30458;SDS011;17254;50.976;7.034;2023-04-24T00:00:26;3.13;;;2.78;;
30458;SDS011;17254;50.976;7.034;2023-04-24T00:00:32;3.03;;;2.63;;
30458;SDS011;17254;50.976;7.034;2023-04-24T00:00:38;2.97;;;2.50;;
30458;SDS011;17254;50.976;7.034;2023-04-24T00:00:45;2.90;;;2.30;;
30458;SDS011;17254;50.976;7.034;2023-04-24T00:00:52;3.10;;;2.37;;
30458;SDS011;17254;50.976;7.034;2023-04-24T00:00:58;3.07;;;2.30;;
30458;SDS011;17254;50.976;7.034;2023-04-24T00:01:06;3.43;;;2.49;;
30458;SDS011;17254;50.976;7.034;2023-04-24T00:01:12;3.40;;;2.53;;
30458;SDS011;17254;50.976;7.034;2023-04-24T00:01:20;3.35;;;2.57;;
30458;SDS011;17254;50.976;7.034;2023-04-24T00:01:26;3.30;;;2.60;;
30458;SDS011;17254;50.976;7.034;2023-04-24T00:01:32;3.10;;;2.47;;
30458;SDS011;17254;50.976;7.034;2023-04-24T00:01:39;3.00;;;2.40;;
30458;SDS011;17254;50.976;7.034;2023-04-24T00:01:45;3.10;;;2.40;;
30458;SDS011;17254;50.976;7.034;2023-04-24T00:01:51;3.45;;;2.42;;
30458;SDS011;17254;50.976;7.034;2023-04-24T00:01:57;3.47;;;2.33;;
30458;SDS011;17254;50.976;7.034;2023-04-24T00:02:03;3.30;;;2.40;;
30458;SDS011;17254;50.976;7.034;2023-04-24T00:02:11;3.25;;;2.42;;
30458;SDS011;17254;50.976;7.034;2023-04-24T00:02:18;3.08;;;2.40;;
30458;SDS011;17254;50.976;7.034;2023-04-24T00:02:24;2.70;;;2.38;;
30458;SDS011;17254;50.976;7.034;2023-04-24T00:02:30;2.80;;;2.40;;
30458;SDS011;17254;50.976;7.034;2023-04-24T00:02:37;2.73;;;2.33;;
30458;SDS011;17254;50.976;7.034;2023-04-24T00:02:45;2.80;;;2.20;;
30458;SDS011;17254;50.976;7.034;2023-04-24T00:02:52;2.87;;;2.32;;
30458;SDS011;17254;50.976;7.034;2023-04-24T00:03:02;2.90;;;2.40;;
30458;SDS011;17254;50.976;7.034;2023-04-24T00:03:08;3.08;;;2.44;;
30458;SDS011;17254;50.976;7.034;2023-04-24T00:03:14;3.13;;;2.57;;
30458;SDS011;17254;50.976;7.034;2023-04-24T00:03:20;3.13;;;2.45;;
30458;SDS011;17254;50.976;7.034;2023-04-24T00:03:26;3.10;;;2.33;;
30458;SDS011;17254;50.976;7.034;2023-04-24T00:03:33;3.14;;;2.34;;
30458;SDS011;17254;50.976;7.034;2023-04-24T00:03:39;3.00;;;2.30;;
30458;SDS011;17254;50.976;7.034;2023-04-24T00:03:46;3.00;;;2.40;;
30458;SDS011;17254;50.976;7.034;2023-04-24T00:03:52;3.42;;;2.42;;
30458;SDS011;17254;50.976;7.034;2023-04-24T00:03:58;3.50;;;2.60;;
30458;SDS011;17254;50.976;7.034;2023-04-24T00:04:04;3.40;;;2.63;;
30458;SDS011;17254;50.976;7.034;2023-04-24T00:04:11;3.52;;;2.67;;
30458;SDS011;17254;50.976;7.034;2023-04-24T00:04:21;3.23;;;2.61;;
30458;SDS011;17254;50.976;7.034;2023-04-24T00:04:30;3.04;;;2.53;;
30458;SDS011;17254;50.976;7.034;2023-04-24T00:04:36;3.70;;;2.50;;
30458;SDS011;17254;50.976;7.034;2023-04-24T00:04:45;3.63;;;2.50;;
30458;SDS011;17254;50.976;7.034;2023-04-24T00:04:51;3.60;;;2.57;;
30458;SDS011;17254;50.976;7.034;2023-04-24T00:04:57;3.55;;;2.65;;
30458;SDS011;17254;50.976;7.034;2023-04-24T00:05:08;3.17;;;2.60;;
30458;SDS011;17254;50.976;7.034;2023-04-24T00:05:14;2.97;;;2.53;;
30458;SDS011;17254;50.976;7.034;2023-04-24T00:05:20;3.03;;;2.50;;
30458;SDS011;17254;50.976;7.034;2023-04-24T00:05:27;3.10;;;2.47;;
30458;SDS011;17254;50.976;7.034;2023-04-24T00:05:33;3.05;;;2.40;;
30458;SDS011;17254;50.976;7.034;2023-04-24T00:05:38;3.00;;;2.30;;
30458;SDS011;17254;50.976;7.034;2023-04-24T00:05:45;2.85;;;2.33;;
30458;SDS011;17254;50.976;7.034;2023-04-24T00:05:51;2.80;;;2.28;;
30458;SDS011;17254;50.976;7.034;2023-04-24T00:05:57;2.80;;;2.22;;
30458;SDS011;17254;50.976;7.034;2023-04-24T00:06:05;3.08;;;2.42;;
30458;SDS011;17254;50.976;7.034;2023-04-24T00:06:13;3.20;;;2.54;;
30458;SDS011;17254;50.976;7.034;2023-04-24T00:06:19;3.30;;;2.78;;
30458;SDS011;17254;50.976;7.034;2023-04-24T00:06:25;3.30;;;2.83;;
30458;SDS011;17254;50.976;7.034;2023-04-24T00:06:38;3.25;;;2.80;;
30458;SDS011;17254;50.976;7.034;2023-04-24T00:06:43;3.10;;;2.72;;
30458;SDS011;17254;50.976;7.034;2023-04-24T00:06:54;3.01;;;2.60;;
30458;SDS011;17254;50.976;7.034;2023-04-24T00:07:02;2.97;;;2.57;;
30458;SDS011;17254;50.976;7.034;2023-04-24T00:07:08;3.03;;;2.55;;
30458;SDS011;17254;50.976;7.034;2023-04-24T00:07:15;3.50;;;2.40;;
30458;SDS011;17254;50.976;7.034;2023-04-24T00:07:21;3.53;;;2.37;;
30458;SDS011;17254;50.976;7.034;2023-04-24T00:07:27;3.50;;;2.40;;
30458;SDS011;17254;50.976;7.034;2023-04-24T00:07:33;3.60;;;2.47;;
30458;SDS011;17254;50.976;7.034;2023-04-24T00:07:39;3.65;;;2.50;;
30458;SDS011;17254;50.976;7.034;2023-04-24T00:07:45;3.40;;;2.70;;
30458;SDS011;17254;50.976;7.034;2023-04-24T00:07:51;3.25;;;2.70;;
30458;SDS011;17254;50.976;7.034;2023-04-24T00:07:57;3.30;;;2.72;;
30458;SDS011;17254;50.976;7.034;2023-04-24T00:08:03;3.20;;;2.70;;
30458;SDS011;17254;50.976;7.034;2023-04-24T00:08:09;3.17;;;2.67;;
30458;SDS011;17254;50.976;7.034;2023-04-24T00:08:15;3.15;;;2.60;;
30458;SDS011;17254;50.976;7.034;2023-04-24T00:08:21;3.38;;;2.60;;
30458;SDS011;17254;50.976;7.034;2023-04-24T00:08:27;3.40;;;2.50;;
30458;SDS011;17254;50.976;7.034;2023-04-24T00:08:33;3.42;;;2.42;;
30458;SDS011;17254;50.976;7.034;2023-04-24T00:08:41;3.40;;;2.37;;
30458;SDS011;17254;50.976;7.034;2023-04-24T00:08:46;3.55;;;2.47;;
30458;SDS011;17254;50.976;7.034;2023-04-24T00:08:52;3.50;;;2.50;;
30458;SDS011;17254;50.976;7.034;2023-04-24T00:08:58;3.40;;;2.63;;
30458;SDS011;17254;50.976;7.034;2023-04-24T00:09:05;3.55;;;2.65;;
30458;SDS011;17254;50.976;7.034;2023-04-24T00:09:11;3.50;;;2.60;;
30458;SDS011;17254;50.976;7.034;2023-04-24T00:09:17;3.38;;;2.63;;
30458;SDS011;17254;50.976;7.034;2023-04-24T00:09:23;3.20;;;2.60;;
30458;SDS011;17254;50.976;7.034;2023-04-24T00:09:29;3.50;;;2.57;;
30458;SDS011;17254;50.976;7.034;2023-04-24T00:09:35;3.38;;;2.55;;
30458;SDS011;17254;50.976;7.034;2023-04-24T00:09:41;3.50;;;2.63;;
30458;SDS011;17254;50.976;7.034;2023-04-24T00:09:47;3.50;;;2.60;;
30458;SDS011;17254;50.976;7.034;2023-04-24T00:09:53;3.60;;;2.60;;
30458;SDS011;17254;50.976;7.034;2023-04-24T00:09:59;3.27;;;2.43;;
30458;SDS011;17254;50.976;7.034;2023-04-24T00:10:06;3.20;;;2.63;;
30458;SDS011;17254;50.976;7.034;2023-04-24T00:10:13;3.47;;;2.70;;
30458;SDS011;17254;50.976;7.034;2023-04-24T00:10:21;3.50;;;2.80;;
30458;SDS011;17254;50.976;7.034;2023-04-24T00:10:27;3.66;;;2.92;;
30458;SDS011;17254;50.976;7.034;2023-04-24T00:10:33;4.20;;;3.05;;
30458;SDS011;17254;50.976;7.034;2023-04-24T00:10:38;4.13;;;2.95;;
30458;SDS011;17254;50.976;7.034;2023-04-24T00:10:44;3.92;;;2.90;;
30458;SDS011;17254;50.976;7.034;2023-04-24T00:10:51;3.90;;;2.87;;
30458;SDS011;17254;50.976;7.034;2023-04-24T00:10:57;3.70;;;2.82;;
30458;SDS011;17254;50.976;7.034;2023-04-24T00:11:03;3.33;;;2.80;;
30458;SDS011;17254;50.976;7.034;2023-04-24T00:11:10;3.22;;;2.72;;
30458;SDS011;17254;50.976;7.034;2023-04-24T00:11:15;3.30;;;2.85;;
30458;SDS011;17254;50.976;7.034;2023-04-24T00:11:21;3.22;;;2.75;;
30458;SDS011;17254;50.976;7.034;2023-04-24T00:11:27;3.53;;;2.83;;
30458;SDS011;17254;50.976;7.034;2023-04-24T00:11:35;3.50;;;2.70;;
30458;SDS011;17254;50.976;7.034;2023-04-24T00:11:41;3.72;;;2.75;;
30458;SDS011;17254;50.976;7.034;2023-04-24T00:11:47;3.92;;;2.60;;
30458;SDS011;17254;50.976;7.034;2023-04-24T00:11:53;4.18;;;2.72;;
30458;SDS011;17254;50.976;7.034;2023-04-24T00:11:59;3.95;;;2.75;;
30458;SDS011;17254;50.976;7.034;2023-04-24T00:12:05;3.95;;;2.88;;
30458;SDS011;17254;50.976;7.034;2023-04-24T00:12:11;3.72;;;2.85;;
30458;SDS011;17254;50.976;7.034;2023-04-24T00:12:17;3.63;;;2.90;;
30458;SDS011;17254;50.976;7.034;2023-04-24T00:12:23;3.40;;;2.90;;
30458;SDS011;17254;50.976;7.034;2023-04-24T00:12:29;3.37;;;2.77;;
30458;SDS011;17254;50.976;7.034;2023-04-24T00:12:36;3.57;;;2.60;;
30458;SDS011;17254;50.976;7.034;2023-04-24T00:12:42;3.80;;;2.60;;
30458;SDS011;17254;50.976;7.034;2023-04-24T00:12:48;3.75;;;2.53;;
30458;SDS011;17254;50.976;7.034;2023-04-24T00:12:55;3.60;;;2.53;;
30458;SDS011;17254;50.976;7.034;2023-04-24T00:13:01;3.78;;;2.72;;
30458;SDS011;17254;50.976;7.034;2023-04-24T00:13:07;3.27;;;2.80;;
30458;SDS011;17254;50.976;7.034;2023-04-24T00:13:13;3.10;;;2.70;;
30458;SDS011;17254;50.976;7.034;2023-04-24T00:13:18;3.10;;;2.72;;
30458;SDS011;17254;50.976;7.034;2023-04-24T00:13:24;3.05;;;2.65;;
30458;SDS011;17254;50.976;7.034;2023-04-24T00:13:30;3.00;;;2.50;;
30458;SDS011;17254;50.976;7.034;2023-04-24T00:13:37;3.00;;;2.50;;
30458;SDS011;17254;50.976;7.034;2023-04-24T00:13:43;3.10;;;2.53;;
30458;SDS011;17254;50.976;7.034;2023-04-24T00:13:48;3.10;;;2.50;;
30458;SDS011;17254;50.976;7.034;2023-04-24T00:13:54;3.10;;;2.58;;
30458;SDS011;17254;50.976;7.034;2023-04-24T00:14:00;3.38;;;2.65;;
30458;SDS011;17254;50.976;7.034;2023-04-24T00:14:06;3.75;;;2.65;;
30458;SDS011;17254;50.976;7.034;2023-04-24T00:14:13;3.80;;;2.80;;
30458;SDS011;17254;50.976;7.034;2023-04-24T00:14:19;3.80;;;2.80;;
30458;SDS011;17254;50.976;7.034;2023-04-24T00:14:25;4.13;;;2.87;;
30458;SDS011;17254;50.976;7.034;2023-04-24T00:14:31;4.28;;;2.92;;
30458;SDS011;17254;50.976;7.034;2023-04-24T00:14:37;4.15;;;2.88;;
30458;SDS011;17254;50.976;7.034;2023-04-24T00:14:43;3.92;;;2.68;;
30458;SDS011;17254;50.976;7.034;2023-04-24T00:14:49;3.80;;;2.50;;
30458;SDS011;17254;50.976;7.034;2023-04-24T00:14:55;3.92;;;2.42;;
30458;SDS011;17254;50.976;7.034;2023-04-24T00:15:01;3.55;;;2.30;;
30458;SDS011;17254;50.976;7.034;2023-04-24T00:15:08;3.50;;;2.25;;
30458;SDS011;17254;50.976;7.034;2023-04-24T00:15:14;3.46;;;2.38;;
30458;SDS011;17254;50.976;7.034;2023-04-24T00:15:20;3.50;;;2.50;;
30458;SDS011;17254;50.976;7.034;2023-04-24T00:15:26;3.03;;;2.40;;
30458;SDS011;17254;50.976;7.034;2023-04-24T00:15:33;3.06;;;2.52;;
30458;SDS011;17254;50.976;7.034;2023-04-24T00:15:39;3.30;;;2.53;;
30458;SDS011;17254;50.976;7.034;2023-04-24T00:15:45;3.47;;;2.58;;
30458;SDS011;17254;50.976;7.034;2023-04-24T00:15:51;3.60;;;2.72;;
30458;SDS011;17254;50.976;7.034;2023-04-24T00:15:57;3.60;;;2.70;;
30458;SDS011;17254;50.976;7.034;2023-04-24T00:16:03;3.83;;;2.70;;
30458;SDS011;17254;50.976;7.034;2023-04-24T00:16:10;3.60;;;2.70;;
30458;SDS011;17254;50.976;7.034;2023-04-24T00:16:16;3.50;;;2.60;;
30458;SDS011;17254;50.976;7.034;2023-04-24T00:16:22;3.40;;;2.42;;
30458;SDS011;17254;50.976;7.034;2023-04-24T00:16:28;3.38;;;2.50;;
30458;SDS011;17254;50.976;7.034;2023-04-24T00:16:34;3.10;;;2.58;;
30458;SDS011;17254;50.976;7.034;2023-04-24T00:16:40;3.50;;;2.63;;
30458;SDS011;17254;50.976;7.034;2023-04-24T00:16:46;3.40;;;2.65;;
30458;SDS011;17254;50.976;7.034;2023-04-24T00:16:53;3.90;;;2.64;;
30458;SDS011;17254;50.976;7.034;2023-04-24T00:16:59;3.88;;;2.55;;
30458;SDS011;17254;50.976;7.034;2023-04-24T00:17:05;3.70;;;2.47;;
30458;SDS011;17254;50.976;7.034;2023-04-24T00:17:11;3.33;;;2.47;;
30458;SDS011;17254;50.976;7.034;2023-04-24T00:17:16;3.47;;;2.55;;
30458;SDS011;17254;50.976;7.034;2023-04-24T00:17:25;3.37;;;2.63;;
30458;SDS011;17254;50.976;7.034;2023-04-24T00:17:31;3.57;;;2.67;;
30458;SDS011;17254;50.976;7.034;2023-04-24T00:17:36;3.70;;;2.63;;
30458;SDS011;17254;50.976;7.034;2023-04-24T00:17:42;3.80;;;2.67;;
30458;SDS011;17254;50.976;7.034;2023-04-24T00:17:48;3.70;;;2.50;;
30458;SDS011;17254;50.976;7.034;2023-04-24T00:17:54;4.00;;;2.55;;
30458;SDS011;17254;50.976;7.034;2023-04-24T00:18:00;3.95;;;2.45;;
30458;SDS011;17254;50.976;7.034;2023-04-24T00:18:06;3.93;;;2.40;;
30458;SDS011;17254;50.976;7.034;2023-04-24T00:18:13;3.90;;;2.50;;
30458;SDS011;17254;50.976;7.034;2023-04-24T00:18:19;4.13;;;2.67;;
30458;SDS011;17254;50.976;7.034;2023-04-24T00:18:25;3.58;;;2.60;;
30458;SDS011;17254;50.976;7.034;2023-04-24T00:18:31;3.45;;;2.70;;
30458;SDS011;17254;50.976;7.034;2023-04-24T00:18:37;3.30;;;2.60;;
30458;SDS011;17254;50.976;7.034;2023-04-24T00:18:43;3.20;;;2.50;;
30458;SDS011;17254;50.976;7.034;2023-04-24T00:18:50;3.03;;;2.47;;
30458;SDS011;17254;50.976;7.034;2023-04-24T00:18:57;3.07;;;2.53;;
30458;SDS011;17254;50.976;7.034;2023-04-24T00:19:03;3.20;;;2.72;;
30458;SDS011;17254;50.976;7.034;2023-04-24T00:19:10;3.20;;;2.78;;
30458;SDS011;17254;50.976;7.034;2023-04-24T00:19:17;3.03;;;2.60;;
30458;SDS011;17254;50.976;7.034;2023-04-24T00:19:26;3.03;;;2.50;;
30458;SDS011;17254;50.976;7.034;2023-04-24T00:19:32;2.90;;;2.42;;
30458;SDS011;17254;50.976;7.034;2023-04-24T00:19:39;3.06;;;2.42;;
30458;SDS011;17254;50.976;7.034;2023-04-24T00:19:45;3.38;;;2.53;;
30458;SDS011;17254;50.976;7.034;2023-04-24T00:19:51;3.50;;;2.60;;
30458;SDS011;17254;50.976;7.034;2023-04-24T00:20:03;3.52;;;2.71;;
30458;SDS011;17254;50.976;7.034;2023-04-24T00:20:12;3.37;;;2.66;;
30458;SDS011;17254;50.976;7.034;2023-04-24T00:20:20;3.27;;;2.67;;
30458;SDS011;17254;50.976;7.034;2023-04-24T00:20:26;3.42;;;2.60;;
30458;SDS011;17254;50.976;7.034;2023-04-24T00:20:33;3.60;;;2.52;;
30458;SDS011;17254;50.976;7.034;2023-04-24T00:20:40;3.52;;;2.42;;
30458;SDS011;17254;50.976;7.034;2023-04-24T00:20:46;3.47;;;2.30;;
30458;SDS011;17254;50.976;7.034;2023-04-24T00:20:52;3.30;;;2.25;;
30458;SDS011;17254;50.976;7.034;2023-04-24T00:20:58;3.15;;;2.17;;
30458;SDS011;17254;50.976;7.034;2023-04-24T00:21:04;3.10;;;2.20;;
30458;SDS011;17254;50.976;7.034;2023-04-24T00:21:11;3.10;;;2.20;;
30458;SDS011;17254;50.976;7.034;2023-04-24T00:21:17;3.20;;;2.17;;
30458;SDS011;17254;50.976;7.034;2023-04-24T00:21:23;3.10;;;2.20;;
30458;SDS011;17254;50.976;7.034;2023-04-24T00:21:30;2.98;;;2.26;;
30458;SDS011;17254;50.976;7.034;2023-04-24T00:21:37;3.16;;;2.38;;
30458;SDS011;17254;50.976;7.034;2023-04-24T00:21:43;3.10;;;2.50;;
30458;SDS011;17254;50.976;7.034;2023-04-24T00:21:49;3.10;;;2.50;;
30458;SDS011;17254;50.976;7.034;2023-04-24T00:21:56;4.70;;;2.50;;
30458;SDS011;17254;50.976;7.034;2023-04-24T00:22:02;4.78;;;2.50;;
30458;SDS011;17254;50.976;7.034;2023-04-24T00:22:08;4.70;;;2.50;;
30458;SDS011;17254;50.976;7.034;2023-04-24T00:22:13;4.80;;;2.50;;
30458;SDS011;17254;50.976;7.034;2023-04-24T00:22:19;5.05;;;2.40;;
30458;SDS011;17254;50.976;7.034;2023-04-24T00:22:26;3.77;;;2.47;;
30458;SDS011;17254;50.976;7.034;2023-04-24T00:22:32;3.63;;;2.30;;
30458;SDS011;17254;50.976;7.034;2023-04-24T00:22:38;3.70;;;2.40;;
30458;SDS011;17254;50.976;7.034;2023-04-24T00:22:45;3.82;;;2.44;;
30458;SDS011;17254;50.976;7.034;2023-04-24T00:22:51;3.80;;;2.64;;
30458;SDS011;17254;50.976;7.034;2023-04-24T00:22:57;3.60;;;2.70;;
30458;SDS011;17254;50.976;7.034;2023-04-24T00:23:03;3.50;;;2.65;;
30458;SDS011;17254;50.976;7.034;2023-04-24T00:23:09;3.50;;;2.65;;
30458;SDS011;17254;50.976;7.034;2023-04-24T00:23:15;3.35;;;2.60;;
30458;SDS011;17254;50.976;7.034;2023-04-24T00:23:21;3.10;;;2.50;;
30458;SDS011;17254;50.976;7.034;2023-04-24T00:23:27;3.00;;;2.30;;
30458;SDS011;17254;50.976;7.034;2023-04-24T00:23:32;3.33;;;2.40;;
30458;SDS011;17254;50.976;7.034;2023-04-24T00:23:38;3.58;;;2.40;;
30458;SDS011;17254;50.976;7.034;2023-04-24T00:23:44;3.45;;;2.38;;
30458;SDS011;17254;50.976;7.034;2023-04-24T00:23:50;3.50;;;2.45;;
30458;SDS011;17254;50.976;7.034;2023-04-24T00:23:56;3.55;;;2.55;;
30458;SDS011;17254;50.976;7.034;2023-04-24T00:24:02;3.57;;;2.80;;
30458;SDS011;17254;50.976;7.034;2023-04-24T00:24:08;3.32;;;2.82;;
30458;SDS011;17254;50.976;7.034;2023-04-24T00:24:16;3.34;;;2.90;;
30458;SDS011;17254;50.976;7.034;2023-04-24T00:24:22;3.30;;;2.85;;
30458;SDS011;17254;50.976;7.034;2023-04-24T00:24:27;3.28;;;2.78;;
30458;SDS011;17254;50.976;7.034;2023-04-24T00:24:33;3.10;;;2.70;;
30458;SDS011;17254;50.976;7.034;2023-04-24T00:24:39;3.23;;;2.70;;
30458;SDS011;17254;50.976;7.034;2023-04-24T00:24:45;3.33;;;2.63;;
30458;SDS011;17254;50.976;7.034;2023-04-24T00:24:51;3.40;;;2.67;;
30458;SDS011;17254;50.976;7.034;2023-04-24T00:24:57;3.40;;;2.70;;
30458;SDS011;17254;50.976;7.034;2023-04-24T00:25:03;3.40;;;2.55;;
30458;SDS011;17254;50.976;7.034;2023-04-24T00:25:10;3.57;;;2.43;;
30458;SDS011;17254;50.976;7.034;2023-04-24T00:25:16;3.70;;;2.47;;
30458;SDS011;17254;50.976;7.034;2023-04-24T00:25:24;3.70;;;2.40;;
30458;SDS011;17254;50.976;7.034;2023-04-24T00:25:30;3.70;;;2.20;;
30458;SDS011;17254;50.976;7.034;2023-04-24T00:25:36;3.43;;;2.27;;
30458;SDS011;17254;50.976;7.034;2023-04-24T00:25:42;3.17;;;2.40;;
30458;SDS011;17254;50.976;7.034;2023-04-24T00:25:48;3.05;;;2.45;;
30458;SDS011;17254;50.976;7.034;2023-04-24T00:25:54;2.97;;;2.40;;
30458;SDS011;17254;50.976;7.034;2023-04-24T00:25:59;3.08;;;2.55;;
30458;SDS011;17254;50.976;7.034;2023-04-24T00:26:05;3.10;;;2.55;;
30458;SDS011;17254;50.976;7.034;2023-04-24T00:26:11;3.17;;;2.60;;
30458;SDS011;17254;50.976;7.034;2023-04-24T00:26:17;3.20;;;2.63;;
30458;SDS011;17254;50.976;7.034;2023-04-24T00:26:23;3.60;;;2.80;;
30458;SDS011;17254;50.976;7.034;2023-04-24T00:26:29;3.72;;;2.80;;
30458;SDS011;17254;50.976;7.034;2023-04-24T00:26:36;3.60;;;2.72;;
30458;SDS011;17254;50.976;7.034;2023-04-24T00:26:42;3.70;;;2.60;;
30458;SDS011;17254;50.976;7.034;2023-04-24T00:26:47;3.78;;;2.65;;
30458;SDS011;17254;50.976;7.034;2023-04-24T00:26:53;3.63;;;2.70;;
30458;SDS011;17254;50.976;7.034;2023-04-24T00:26:59;3.45;;;2.60;;
30458;SDS011;17254;50.976;7.034;2023-04-24T00:27:06;3.57;;;2.73;;
30458;SDS011;17254;50.976;7.034;2023-04-24T00:27:12;3.30;;;2.80;;
30458;SDS011;17254;50.976;7.034;2023-04-24T00:27:17;3.55;;;2.80;;
30458;SDS011;17254;50.976;7.034;2023-04-24T00:27:23;3.80;;;2.63;;
30458;SDS011;17254;50.976;7.034;2023-04-24T00:27:29;3.80;;;2.65;;
30458;SDS011;17254;50.976;7.034;2023-04-24T00:27:35;3.83;;;2.55;;
30458;SDS011;17254;50.976;7.034;2023-04-24T00:27:42;3.80;;;2.40;;
30458;SDS011;17254;50.976;7.034;2023-04-24T00:27:49;3.57;;;2.27;;
30458;SDS011;17254;50.976;7.034;2023-04-24T00:27:55;3.33;;;2.40;;
30458;SDS011;17254;50.976;7.034;2023-04-24T00:28:01;3.42;;;2.40;;
30458;SDS011;17254;50.976;7.034;2023-04-24T00:28:07;3.50;;;2.40;;
30458;SDS011;17254;50.976;7.034;2023-04-24T00:28:13;3.50;;;2.50;;
30458;SDS011;17254;50.976;7.034;2023-04-24T00:28:19;3.33;;;2.50;;
30458;SDS011;17254;50.976;7.034;2023-04-24T00:28:25;3.42;;;2.42;;
30458;SDS011;17254;50.976;7.034;2023-04-24T00:28:31;3.40;;;2.35;;
30458;SDS011;17254;50.976;7.034;2023-04-24T00:28:37;3.42;;;2.45;;
30458;SDS011;17254;50.976;7.034;2023-04-24T00:28:43;3.42;;;2.50;;
30458;SDS011;17254;50.976;7.034;2023-04-24T00:28:49;3.40;;;2.43;;
30458;SDS011;17254;50.976;7.034;2023-04-24T00:28:55;3.17;;;2.40;;
30458;SDS011;17254;50.976;7.034;2023-04-24T00:29:01;3.15;;;2.58;;
30458;SDS011;17254;50.976;7.034;2023-04-24T00:29:07;3.30;;;2.47;;
30458;SDS011;17254;50.976;7.034;2023-04-24T00:29:13;3.30;;;2.40;;
30458;SDS011;17254;50.976;7.034;2023-04-24T00:29:19;3.32;;;2.42;;
30458;SDS011;17254;50.976;7.034;2023-04-24T00:29:25;3.33;;;2.40;;
30458;SDS011;17254;50.976;7.034;2023-04-24T00:29:31;3.40;;;2.58;;
30458;SDS011;17254;50.976;7.034;2023-04-24T00:29:37;3.22;;;2.60;;
30458;SDS011;17254;50.976;7.034;2023-04-24T00:29:43;3.70;;;2.70;;
30458;SDS011;17254;50.976;7.034;2023-04-24T00:29:49;3.70;;;2.70;;
30458;SDS011;17254;50.976;7.034;2023-04-24T00:29:55;3.80;;;2.80;;
30458;SDS011;17254;50.976;7.034;2023-04-24T00:30:01;3.65;;;2.70;;
30458;SDS011;17254;50.976;7.034;2023-04-24T00:30:08;3.77;;;2.73;;
30458;SDS011;17254;50.976;7.034;2023-04-24T00:30:14;3.37;;;2.80;;
30458;SDS011;17254;50.976;7.034;2023-04-24T00:30:20;3.35;;;2.80;;
30458;SDS011;17254;50.976;7.034;2023-04-24T00:30:26;3.30;;;2.70;;
30458;SDS011;17254;50.976;7.034;2023-04-24T00:30:32;3.30;;;2.65;;
30458;SDS011;17254;50.976;7.034;2023-04-24T00:30:38;3.17;;;2.72;;
30458;SDS011;17254;50.976;7.034;2023-04-24T00:30:45;3.13;;;2.63;;
30458;SDS011;17254;50.976;7.034;2023-04-24T00:30:51;3.10;;;2.48;;
30458;SDS011;17254;50.976;7.034;2023-04-24T00:30:59;3.02;;;2.42;;
30458;SDS011;17254;50.976;7.034;2023-04-24T00:31:05;3.20;;;2.50;;
30458;SDS011;17254;50.976;7.034;2023-04-24T00:31:10;3.25;;;2.50;;
30458;SDS011;17254;50.976;7.034;2023-04-24T00:31:17;3.30;;;2.73;;
30458;SDS011;17254;50.976;7.034;2023-04-24T00:31:24;3.34;;;2.90;;
30458;SDS011;17254;50.976;7.034;2023-04-24T00:31:30;3.40;;;2.80;;
30458;SDS011;17254;50.976;7.034;2023-04-24T00:31:36;3.30;;;2.80;;
30458;SDS011;17254;50.976;7.034;2023-04-24T00:31:42;3.40;;;2.77;;
30458;SDS011;17254;50.976;7.034;2023-04-24T00:31:48;3.70;;;2.63;;
30458;SDS011;17254;50.976;7.034;2023-04-24T00:31:54;3.78;;;2.60;;
30458;SDS011;17254;50.976;7.034;2023-04-24T00:32:00;3.80;;;2.70;;
30458;SDS011;17254;50.976;7.034;2023-04-24T00:32:06;3.63;;;2.63;;
30458;SDS011;17254;50.976;7.034;2023-04-24T00:32:12;3.60;;;2.50;;
30458;SDS011;17254;50.976;7.034;2023-04-24T00:32:18;3.27;;;2.50;;
30458;SDS011;17254;50.976;7.034;2023-04-24T00:32:24;3.42;;;2.53;;
30458;SDS011;17254;50.976;7.034;2023-04-24T00:32:31;3.60;;;2.46;;
30458;SDS011;17254;50.976;7.034;2023-04-24T00:32:37;4.40;;;2.70;;
30458;SDS011;17254;50.976;7.034;2023-04-24T00:32:43;4.30;;;2.78;;
30458;SDS011;17254;50.976;7.034;2023-04-24T00:32:51;4.10;;;2.80;;
30458;SDS011;17254;50.976;7.034;2023-04-24T00:32:57;3.92;;;2.78;;
30458;SDS011;17254;50.976;7.034;2023-04-24T00:33:03;3.92;;;2.88;;
30458;SDS011;17254;50.976;7.034;2023-04-24T00:33:09;3.50;;;2.78;;
30458;SDS011;17254;50.976;7.034;2023-04-24T00:33:15;3.53;;;2.83;;
30458;SDS011;17254;50.976;7.034;2023-04-24T00:33:21;3.53;;;2.83;;
30458;SDS011;17254;50.976;7.034;2023-04-24T00:33:27;3.55;;;2.85;;
30458;SDS011;17254;50.976;7.034;2023-04-24T00:33:33;3.45;;;2.78;;
30458;SDS011;17254;50.976;7.034;2023-04-24T00:33:39;3.40;;;2.72;;
30458;SDS011;17254;50.976;7.034;2023-04-24T00:33:45;3.35;;;2.80;;
30458;SDS011;17254;50.976;7.034;2023-04-24T00:33:52;3.28;;;2.80;;
30458;SDS011;17254;50.976;7.034;2023-04-24T00:33:58;3.28;;;2.88;;
30458;SDS011;17254;50.976;7.034;2023-04-24T00:34:04;3.25;;;2.88;;
30458;SDS011;17254;50.976;7.034;2023-04-24T00:34:10;3.20;;;2.90;;
30458;SDS011;17254;50.976;7.034;2023-04-24T00:34:16;3.20;;;2.90;;
30458;SDS011;17254;50.976;7.034;2023-04-24T00:34:23;3.30;;;3.00;;
30458;SDS011;17254;50.976;7.034;2023-04-24T00:34:29;3.30;;;2.87;;
30458;SDS011;17254;50.976;7.034;2023-04-24T00:34:37;3.37;;;2.99;;
30458;SDS011;17254;50.976;7.034;2023-04-24T00:34:43;4.07;;;3.10;;
30458;SDS011;17254;50.976;7.034;2023-04-24T00:34:49;4.07;;;2.97;;
30458;SDS011;17254;50.976;7.034;2023-04-24T00:34:55;4.07;;;2.90;;
30458;SDS011;17254;50.976;7.034;2023-04-24T00:35:01;4.32;;;2.80;;
30458;SDS011;17254;50.976;7.034;2023-04-24T00:35:07;4.22;;;2.70;;
30458;SDS011;17254;50.976;7.034;2023-04-24T00:35:13;3.70;;;2.60;;
30458;SDS011;17254;50.976;7.034;2023-04-24T00:35:21;3.80;;;2.70;;
30458;SDS011;17254;50.976;7.034;2023-04-24T00:35:28;3.80;;;2.86;;
30458;SDS011;17254;50.976;7.034;2023-04-24T00:35:34;3.50;;;3.00;;
30458;SDS011;17254;50.976;7.034;2023-04-24T00:35:40;3.40;;;2.90;;
30458;SDS011;17254;50.976;7.034;2023-04-24T00:35:46;3.47;;;3.00;;
30458;SDS011;17254;50.976;7.034;2023-04-24T00:35:51;3.40;;;2.93;;
30458;SDS011;17254;50.976;7.034;2023-04-24T00:35:57;3.42;;;2.97;;
30458;SDS011;17254;50.976;7.034;2023-04-24T00:36:03;3.42;;;2.92;;
30458;SDS011;17254;50.976;7.034;2023-04-24T00:36:10;4.20;;;3.00;;
30458;SDS011;17254;50.976;7.034;2023-04-24T00:36:15;4.10;;;2.80;;
30458;SDS011;17254;50.976;7.034;2023-04-24T00:36:21;4.20;;;2.83;;
30458;SDS011;17254;50.976;7.034;2023-04-24T00:36:27;4.10;;;2.70;;
30458;SDS011;17254;50.976;7.034;2023-04-24T00:36:33;3.92;;;2.58;;
30458;SDS011;17254;50.976;7.034;2023-04-24T00:36:40;3.60;;;2.58;;
30458;SDS011;17254;50.976;7.034;2023-04-24T00:36:46;3.75;;;2.65;;
30458;SDS011;17254;50.976;7.034;2023-04-24T00:36:54;3.75;;;2.60;;
30458;SDS011;17254;50.976;7.034;2023-04-24T00:37:00;3.80;;;2.65;;
30458;SDS011;17254;50.976;7.034;2023-04-24T00:37:06;3.90;;;2.65;;
30458;SDS011;17254;50.976;7.034;2023-04-24T00:37:12;3.35;;;2.50;;
30458;SDS011;17254;50.976;7.034;2023-04-24T00:37:18;3.25;;;2.45;;
30458;SDS011;17254;50.976;7.034;2023-04-24T00:37:24;3.10;;;2.40;;
30458;SDS011;17254;50.976;7.034;2023-04-24T00:37:30;3.20;;;2.50;;
30458;SDS011;17254;50.976;7.034;2023-04-24T00:37:36;3.13;;;2.53;;
30458;SDS011;17254;50.976;7.034;2023-04-24T00:37:42;3.20;;;2.63;;
30458;SDS011;17254;50.976;7.034;2023-04-24T00:37:48;3.20;;;2.70;;
30458;SDS011;17254;50.976;7.034;2023-04-24T00:37:55;3.20;;;2.82;;
30458;SDS011;17254;50.976;7.034;2023-04-24T00:38:01;3.10;;;2.80;;
30458;SDS011;17254;50.976;7.034;2023-04-24T00:38:07;3.30;;;2.83;;
30458;SDS011;17254;50.976;7.034;2023-04-24T00:38:13;3.40;;;2.83;;